sensor_id;sensor_type;location;lat;lon;timestamp;pressure;altitude;pressure_sealevel;temperature;humidity
15263;BME280;7733;51.554;13.590;2023-04-06T00:02:08;101047.69;;;4.39;63.93
15263;BME280;7733;51.554;13.590;2023-04-06T00:04:34;101048.47;;;4.35;63.97
15263;BME280;7733;51.554;13.590;2023-04-06T00:06:59;101052.16;;;4.06;65.58
15263;BME280;7733;51.554;13.590;2023-04-06T00:09:25;101054.34;;;4.25;64.91
15263;BME280;7733;51.554;13.590;2023-04-06T00:11:51;101051.78;;;4.28;64.51
15263;BME280;7733;51.554;13.590;2023-04-06T00:14:17;101041.13;;;4.16;64.32
15263;BME280;7733;51.554;13.590;2023-04-06T00:16:43;101044.50;;;4.12;64.48
15263;BME280;7733;51.554;13.590;2023-04-06T00:19:08;101046.28;;;4.14;64.44
15263;BME280;7733;51.554;13.590;2023-04-06T00:21:34;101049.50;;;4.03;64.45
15263;BME280;7733;51.554;13.590;2023-04-06T00:24:00;101052.00;;;4.00;65.29
15263;BME280;7733;51.554;13.590;2023-04-06T00:26:26;101050.53;;;3.75;66.55
15263;BME280;7733;51.554;13.590;2023-04-06T00:28:52;101054.47;;;3.24;68.60
15263;BME280;7733;51.554;13.590;2023-04-06T00:31:18;101051.97;;;3.62;66.67
15263;BME280;7733;51.554;13.590;2023-04-06T00:33:43;101041.91;;;3.76;66.05
15263;BME280;7733;51.554;13.590;2023-04-06T00:36:10;101045.28;;;3.72;65.67
15263;BME280;7733;51.554;13.590;2023-04-06T00:38:35;101045.63;;;3.85;65.27
15263;BME280;7733;51.554;13.590;2023-04-06T00:41:03;101051.38;;;3.74;65.82
15263;BME280;7733;51.554;13.590;2023-04-06T00:43:29;101044.19;;;3.27;68.60
15263;BME280;7733;51.554;13.590;2023-04-06T00:45:55;101048.75;;;3.38;67.40
15263;BME280;7733;51.554;13.590;2023-04-06T00:48:21;101048.13;;;3.46;67.97
15263;BME280;7733;51.554;13.590;2023-04-06T00:50:46;101046.06;;;3.67;66.34
15263;BME280;7733;51.554;13.590;2023-04-06T00:53:12;101043.47;;;3.67;65.91
15263;BME280;7733;51.554;13.590;2023-04-06T00:55:39;101046.13;;;3.71;65.31
15263;BME280;7733;51.554;13.590;2023-04-06T00:58:05;101039.22;;;3.71;64.77
15263;BME280;7733;51.554;13.590;2023-04-06T01:00:32;101035.56;;;3.63;66.34
15263;BME280;7733;51.554;13.590;2023-04-06T01:02:58;101049.59;;;3.71;65.53
15263;BME280;7733;51.554;13.590;2023-04-06T01:05:24;101045.25;;;3.70;65.71
15263;BME280;7733;51.554;13.590;2023-04-06T01:07:49;101042.06;;;3.46;65.79
15263;BME280;7733;51.554;13.590;2023-04-06T01:10:28;101040.63;;;3.24;68.71
15263;BME280;7733;51.554;13.590;2023-04-06T01:12:54;101039.97;;;3.32;66.96
15263;BME280;7733;51.554;13.590;2023-04-06T01:15:21;101038.00;;;3.22;68.05
15263;BME280;7733;51.554;13.590;2023-04-06T01:17:47;101038.16;;;3.28;67.77
15263;BME280;7733;51.554;13.590;2023-04-06T01:20:13;101043.56;;;3.38;66.81
15263;BME280;7733;51.554;13.590;2023-04-06T01:22:39;101037.16;;;3.58;65.94
15263;BME280;7733;51.554;13.590;2023-04-06T01:25:06;101034.75;;;3.31;66.66
15263;BME280;7733;51.554;13.590;2023-04-06T01:27:32;101033.88;;;3.30;66.65
15263;BME280;7733;51.554;13.590;2023-04-06T01:29:58;101039.03;;;2.66;70.79
15263;BME280;7733;51.554;13.590;2023-04-06T01:32:25;101039.84;;;2.95;68.86
15263;BME280;7733;51.554;13.590;2023-04-06T01:34:51;101031.88;;;2.87;68.97
15263;BME280;7733;51.554;13.590;2023-04-06T01:37:16;101031.56;;;3.08;68.22
15263;BME280;7733;51.554;13.590;2023-04-06T01:39:43;101033.16;;;3.03;67.39
15263;BME280;7733;51.554;13.590;2023-04-06T01:42:10;101026.09;;;3.30;66.87
15263;BME280;7733;51.554;13.590;2023-04-06T01:44:36;101022.63;;;3.30;66.26
15263;BME280;7733;51.554;13.590;2023-04-06T01:47:02;101036.38;;;3.26;66.78
15263;BME280;7733;51.554;13.590;2023-04-06T01:49:28;101030.34;;;3.27;66.95
15263;BME280;7733;51.554;13.590;2023-04-06T01:51:54;101025.19;;;3.28;66.24
15263;BME280;7733;51.554;13.590;2023-04-06T01:54:20;101027.81;;;3.30;66.93
15263;BME280;7733;51.554;13.590;2023-04-06T01:56:45;101022.59;;;3.28;66.76
15263;BME280;7733;51.554;13.590;2023-04-06T01:59:11;101025.78;;;3.18;67.40
15263;BME280;7733;51.554;13.590;2023-04-06T02:01:37;101026.19;;;3.33;66.12
15263;BME280;7733;51.554;13.590;2023-04-06T02:04:03;101026.25;;;3.36;66.23
15263;BME280;7733;51.554;13.590;2023-04-06T02:06:28;101026.38;;;3.08;66.75
15263;BME280;7733;51.554;13.590;2023-04-06T02:08:54;101021.00;;;3.00;67.65
15263;BME280;7733;51.554;13.590;2023-04-06T02:11:20;101027.09;;;3.02;67.94
15263;BME280;7733;51.554;13.590;2023-04-06T02:13:46;101031.72;;;3.14;66.38
15263;BME280;7733;51.554;13.590;2023-04-06T02:16:11;101022.16;;;3.12;67.04
15263;BME280;7733;51.554;13.590;2023-04-06T02:18:37;101022.34;;;3.19;66.97
15263;BME280;7733;51.554;13.590;2023-04-06T02:21:03;101022.31;;;3.18;66.56
15263;BME280;7733;51.554;13.590;2023-04-06T02:23:29;101024.22;;;2.92;66.29
15263;BME280;7733;51.554;13.590;2023-04-06T02:25:54;101022.13;;;3.10;66.72
15263;BME280;7733;51.554;13.590;2023-04-06T02:28:20;101018.56;;;3.07;65.77
15263;BME280;7733;51.554;13.590;2023-04-06T02:30:46;101018.66;;;2.78;67.76
15263;BME280;7733;51.554;13.590;2023-04-06T02:33:12;101027.03;;;2.39;69.74
15263;BME280;7733;51.554;13.590;2023-04-06T02:35:37;101022.00;;;2.74;68.50
15263;BME280;7733;51.554;13.590;2023-04-06T02:38:03;101015.53;;;2.60;67.78
15263;BME280;7733;51.554;13.590;2023-04-06T02:40:29;101003.50;;;2.60;67.99
15263;BME280;7733;51.554;13.590;2023-04-06T02:42:55;101013.75;;;2.57;67.39
15263;BME280;7733;51.554;13.590;2023-04-06T02:45:20;101019.69;;;2.53;68.34
15263;BME280;7733;51.554;13.590;2023-04-06T02:47:46;101017.88;;;2.51;68.97
15263;BME280;7733;51.554;13.590;2023-04-06T02:50:12;101014.72;;;2.31;68.50
15263;BME280;7733;51.554;13.590;2023-04-06T02:52:38;101017.78;;;2.48;68.63
15263;BME280;7733;51.554;13.590;2023-04-06T02:55:04;101011.94;;;2.55;67.09
15263;BME280;7733;51.554;13.590;2023-04-06T02:57:32;101013.41;;;2.45;67.84
15263;BME280;7733;51.554;13.590;2023-04-06T02:59:57;101010.81;;;2.45;67.80
15263;BME280;7733;51.554;13.590;2023-04-06T03:02:23;101014.47;;;2.52;67.63
15263;BME280;7733;51.554;13.590;2023-04-06T03:04:49;101012.81;;;2.55;66.94
15263;BME280;7733;51.554;13.590;2023-04-06T03:07:15;101013.97;;;2.35;68.82
15263;BME280;7733;51.554;13.590;2023-04-06T03:09:40;101008.41;;;2.51;68.34
15263;BME280;7733;51.554;13.590;2023-04-06T03:12:06;101016.28;;;2.56;68.24
15263;BME280;7733;51.554;13.590;2023-04-06T03:14:32;101012.88;;;2.57;66.85
15263;BME280;7733;51.554;13.590;2023-04-06T03:16:58;101020.63;;;2.57;66.97
15263;BME280;7733;51.554;13.590;2023-04-06T03:19:23;101021.25;;;2.48;66.18
15263;BME280;7733;51.554;13.590;2023-04-06T03:21:49;101018.00;;;2.55;66.92
15263;BME280;7733;51.554;13.590;2023-04-06T03:24:15;101020.25;;;2.43;66.57
15263;BME280;7733;51.554;13.590;2023-04-06T03:26:41;101016.63;;;2.38;66.64
15263;BME280;7733;51.554;13.590;2023-04-06T03:29:07;101029.69;;;2.41;66.61
15263;BME280;7733;51.554;13.590;2023-04-06T03:31:33;101028.34;;;2.25;67.56
15263;BME280;7733;51.554;13.590;2023-04-06T03:33:59;101021.59;;;2.30;67.74
15263;BME280;7733;51.554;13.590;2023-04-06T03:36:25;101021.06;;;2.40;67.05
15263;BME280;7733;51.554;13.590;2023-04-06T03:38:51;101025.06;;;2.31;66.56
15263;BME280;7733;51.554;13.590;2023-04-06T03:41:19;101032.66;;;2.25;66.69
15263;BME280;7733;51.554;13.590;2023-04-06T03:43:45;101029.25;;;2.26;67.53
15263;BME280;7733;51.554;13.590;2023-04-06T03:46:11;101036.94;;;1.96;66.78
15263;BME280;7733;51.554;13.590;2023-04-06T03:48:37;101038.03;;;2.02;67.42
15263;BME280;7733;51.554;13.590;2023-04-06T03:51:03;101037.00;;;2.26;67.88
15263;BME280;7733;51.554;13.590;2023-04-06T03:53:29;101036.00;;;2.21;66.96
15263;BME280;7733;51.554;13.590;2023-04-06T03:55:55;101043.31;;;2.35;67.19
15263;BME280;7733;51.554;13.590;2023-04-06T03:58:21;101041.22;;;2.22;69.07
15263;BME280;7733;51.554;13.590;2023-04-06T04:00:46;101048.75;;;1.88;71.69
15263;BME280;7733;51.554;13.590;2023-04-06T04:03:12;101035.75;;;2.13;69.87
15263;BME280;7733;51.554;13.590;2023-04-06T04:05:38;101049.81;;;1.94;70.21
15263;BME280;7733;51.554;13.590;2023-04-06T04:08:04;101049.25;;;2.03;69.43
15263;BME280;7733;51.554;13.590;2023-04-06T04:10:29;101048.09;;;2.22;67.58
15263;BME280;7733;51.554;13.590;2023-04-06T04:12:55;101050.06;;;2.02;70.08
15263;BME280;7733;51.554;13.590;2023-04-06T04:15:21;101046.38;;;2.22;69.55
15263;BME280;7733;51.554;13.590;2023-04-06T04:17:47;101038.66;;;2.24;69.49
15263;BME280;7733;51.554;13.590;2023-04-06T04:20:15;101045.59;;;2.25;68.66
15263;BME280;7733;51.554;13.590;2023-04-06T04:22:41;101045.88;;;2.05;67.98
15263;BME280;7733;51.554;13.590;2023-04-06T04:25:08;101045.63;;;1.71;70.33
15263;BME280;7733;51.554;13.590;2023-04-06T04:27:34;101049.81;;;1.94;68.06
15263;BME280;7733;51.554;13.590;2023-04-06T04:30:00;101042.53;;;2.09;68.91
15263;BME280;7733;51.554;13.590;2023-04-06T04:32:26;101046.44;;;2.24;67.65
15263;BME280;7733;51.554;13.590;2023-04-06T04:34:53;101050.47;;;2.16;67.36
15263;BME280;7733;51.554;13.590;2023-04-06T04:37:19;101044.94;;;2.03;68.00
15263;BME280;7733;51.554;13.590;2023-04-06T04:39:45;101054.91;;;1.91;69.83
15263;BME280;7733;51.554;13.590;2023-04-06T04:42:11;101049.19;;;2.01;68.66
15263;BME280;7733;51.554;13.590;2023-04-06T04:44:37;101050.78;;;1.98;68.75
15263;BME280;7733;51.554;13.590;2023-04-06T04:47:03;101052.34;;;1.93;68.70
15263;BME280;7733;51.554;13.590;2023-04-06T04:49:29;101055.53;;;1.84;69.75
15263;BME280;7733;51.554;13.590;2023-04-06T04:51:55;101055.34;;;2.05;68.05
15263;BME280;7733;51.554;13.590;2023-04-06T04:54:20;101048.38;;;2.02;68.13
15263;BME280;7733;51.554;13.590;2023-04-06T04:56:46;101056.47;;;1.86;69.59
15263;BME280;7733;51.554;13.590;2023-04-06T04:59:12;101055.59;;;1.60;70.71
15263;BME280;7733;51.554;13.590;2023-04-06T05:01:38;101053.88;;;1.86;69.00
15263;BME280;7733;51.554;13.590;2023-04-06T05:04:04;101048.53;;;2.08;68.04
15263;BME280;7733;51.554;13.590;2023-04-06T05:06:29;101055.38;;;2.06;67.75
15263;BME280;7733;51.554;13.590;2023-04-06T05:08:55;101062.13;;;2.01;68.04
15263;BME280;7733;51.554;13.590;2023-04-06T05:11:21;101056.38;;;1.83;68.12
15263;BME280;7733;51.554;13.590;2023-04-06T05:13:47;101056.13;;;2.02;67.72
15263;BME280;7733;51.554;13.590;2023-04-06T05:16:13;101057.22;;;2.10;67.67
15263;BME280;7733;51.554;13.590;2023-04-06T05:18:39;101055.25;;;2.02;67.43
15263;BME280;7733;51.554;13.590;2023-04-06T05:21:04;101061.31;;;2.02;68.57
15263;BME280;7733;51.554;13.590;2023-04-06T05:23:30;101061.59;;;1.85;70.29
15263;BME280;7733;51.554;13.590;2023-04-06T05:25:56;101070.41;;;1.91;69.51
15263;BME280;7733;51.554;13.590;2023-04-06T05:28:22;101064.06;;;2.08;69.29
15263;BME280;7733;51.554;13.590;2023-04-06T05:30:48;101062.31;;;2.07;69.95
15263;BME280;7733;51.554;13.590;2023-04-06T05:33:14;101071.44;;;2.23;69.11
15263;BME280;7733;51.554;13.590;2023-04-06T05:35:39;101072.56;;;2.04;70.06
15263;BME280;7733;51.554;13.590;2023-04-06T05:38:08;101075.72;;;2.23;70.34
15263;BME280;7733;51.554;13.590;2023-04-06T05:40:36;101078.50;;;2.29;70.61
15263;BME280;7733;51.554;13.590;2023-04-06T05:43:03;101077.09;;;2.40;70.08
15263;BME280;7733;51.554;13.590;2023-04-06T05:45:30;101074.50;;;2.40;70.62
15263;BME280;7733;51.554;13.590;2023-04-06T05:47:55;101081.78;;;2.52;71.28
15263;BME280;7733;51.554;13.590;2023-04-06T05:50:21;101083.09;;;2.67;70.31
15263;BME280;7733;51.554;13.590;2023-04-06T05:52:48;101079.41;;;2.59;71.83
15263;BME280;7733;51.554;13.590;2023-04-06T05:55:14;101078.53;;;2.59;72.74
15263;BME280;7733;51.554;13.590;2023-04-06T05:57:40;101071.31;;;2.79;71.92
15263;BME280;7733;51.554;13.590;2023-04-06T06:00:07;101072.50;;;2.60;72.61
15263;BME280;7733;51.554;13.590;2023-04-06T06:02:35;101068.06;;;2.84;72.92
15263;BME280;7733;51.554;13.590;2023-04-06T06:05:01;101070.06;;;2.64;74.64
15263;BME280;7733;51.554;13.590;2023-04-06T06:07:27;101075.22;;;2.94;73.30
15263;BME280;7733;51.554;13.590;2023-04-06T06:09:57;101070.50;;;2.80;74.76
15263;BME280;7733;51.554;13.590;2023-04-06T06:12:23;101069.41;;;3.01;74.79
15263;BME280;7733;51.554;13.590;2023-04-06T06:14:49;101072.44;;;3.18;73.63
15263;BME280;7733;51.554;13.590;2023-04-06T06:17:15;101075.69;;;3.43;72.34
15263;BME280;7733;51.554;13.590;2023-04-06T06:19:41;101074.03;;;3.13;75.18
15263;BME280;7733;51.554;13.590;2023-04-06T06:22:06;101064.59;;;3.48;72.89
15263;BME280;7733;51.554;13.590;2023-04-06T06:24:32;101072.94;;;3.71;71.94
15263;BME280;7733;51.554;13.590;2023-04-06T06:26:58;101072.72;;;3.62;73.51
15263;BME280;7733;51.554;13.590;2023-04-06T06:29:24;101064.56;;;3.81;72.26
15263;BME280;7733;51.554;13.590;2023-04-06T06:31:50;101074.53;;;4.01;72.23
15263;BME280;7733;51.554;13.590;2023-04-06T06:34:15;101077.88;;;3.96;72.49
15263;BME280;7733;51.554;13.590;2023-04-06T06:36:41;101069.53;;;4.08;71.72
15263;BME280;7733;51.554;13.590;2023-04-06T06:39:07;101081.63;;;4.08;73.17
15263;BME280;7733;51.554;13.590;2023-04-06T06:41:33;101074.03;;;4.17;73.34
15263;BME280;7733;51.554;13.590;2023-04-06T06:43:58;101073.47;;;4.30;72.80
15263;BME280;7733;51.554;13.590;2023-04-06T06:46:24;101074.53;;;4.40;72.32
15263;BME280;7733;51.554;13.590;2023-04-06T06:48:50;101078.38;;;4.57;71.52
15263;BME280;7733;51.554;13.590;2023-04-06T06:51:15;101070.03;;;4.70;70.71
15263;BME280;7733;51.554;13.590;2023-04-06T06:53:41;101077.88;;;4.73;71.20
15263;BME280;7733;51.554;13.590;2023-04-06T06:56:07;101086.09;;;4.95;69.68
15263;BME280;7733;51.554;13.590;2023-04-06T06:58:33;101079.72;;;4.79;70.64
15263;BME280;7733;51.554;13.590;2023-04-06T07:00:59;101079.00;;;4.86;70.03
15263;BME280;7733;51.554;13.590;2023-04-06T07:03:25;101081.25;;;5.11;70.35
15263;BME280;7733;51.554;13.590;2023-04-06T07:05:51;101078.28;;;4.93;70.96
15263;BME280;7733;51.554;13.590;2023-04-06T07:08:22;101069.75;;;5.00;70.11
15263;BME280;7733;51.554;13.590;2023-04-06T07:10:50;101075.63;;;5.35;69.59
15263;BME280;7733;51.554;13.590;2023-04-06T07:13:18;101081.03;;;5.46;68.89
15263;BME280;7733;51.554;13.590;2023-04-06T07:15:48;101081.97;;;5.51;67.53
15263;BME280;7733;51.554;13.590;2023-04-06T07:18:15;101084.16;;;5.78;68.12
15263;BME280;7733;51.554;13.590;2023-04-06T07:20:41;101088.53;;;5.80;66.38
15263;BME280;7733;51.554;13.590;2023-04-06T07:23:07;101085.16;;;5.85;66.95
15263;BME280;7733;51.554;13.590;2023-04-06T07:25:33;101081.72;;;5.86;66.82
15263;BME280;7733;51.554;13.590;2023-04-06T07:27:58;101080.19;;;5.98;65.67
15263;BME280;7733;51.554;13.590;2023-04-06T07:30:24;101079.28;;;5.96;65.30
15263;BME280;7733;51.554;13.590;2023-04-06T07:32:54;101088.00;;;5.98;65.60
15263;BME280;7733;51.554;13.590;2023-04-06T07:35:26;101079.81;;;6.28;64.25
15263;BME280;7733;51.554;13.590;2023-04-06T07:37:53;101073.81;;;6.35;62.97
15263;BME280;7733;51.554;13.590;2023-04-06T07:40:19;101078.41;;;6.53;62.85
15263;BME280;7733;51.554;13.590;2023-04-06T07:42:46;101074.88;;;6.50;62.97
15263;BME280;7733;51.554;13.590;2023-04-06T07:45:12;101069.16;;;6.77;62.10
15263;BME280;7733;51.554;13.590;2023-04-06T07:47:38;101070.22;;;6.94;61.78
15263;BME280;7733;51.554;13.590;2023-04-06T07:50:04;101065.91;;;6.97;61.83
15263;BME280;7733;51.554;13.590;2023-04-06T07:52:31;101064.47;;;7.21;60.89
15263;BME280;7733;51.554;13.590;2023-04-06T07:55:00;101067.72;;;7.01;61.72
15263;BME280;7733;51.554;13.590;2023-04-06T07:57:25;101066.31;;;7.34;59.43
15263;BME280;7733;51.554;13.590;2023-04-06T07:59:51;101061.09;;;7.34;58.36
15263;BME280;7733;51.554;13.590;2023-04-06T08:02:17;101064.00;;;7.61;58.08
15263;BME280;7733;51.554;13.590;2023-04-06T08:04:43;101059.59;;;7.57;58.32
15263;BME280;7733;51.554;13.590;2023-04-06T08:07:09;101070.97;;;7.62;55.81
15263;BME280;7733;51.554;13.590;2023-04-06T08:09:35;101070.84;;;7.50;56.05
15263;BME280;7733;51.554;13.590;2023-04-06T08:12:01;101055.38;;;7.75;54.36
15263;BME280;7733;51.554;13.590;2023-04-06T08:14:27;101057.38;;;8.06;53.71
15263;BME280;7733;51.554;13.590;2023-04-06T08:16:53;101054.84;;;8.18;54.34
15263;BME280;7733;51.554;13.590;2023-04-06T08:19:18;101069.00;;;8.51;54.30
15263;BME280;7733;51.554;13.590;2023-04-06T08:21:47;101062.06;;;8.59;52.60
15263;BME280;7733;51.554;13.590;2023-04-06T08:24:14;101062.06;;;8.59;52.80
15263;BME280;7733;51.554;13.590;2023-04-06T08:26:40;101066.50;;;8.78;50.86
15263;BME280;7733;51.554;13.590;2023-04-06T08:29:06;101056.19;;;9.10;51.50
15263;BME280;7733;51.554;13.590;2023-04-06T08:31:35;101051.81;;;9.14;50.70
15263;BME280;7733;51.554;13.590;2023-04-06T08:34:05;101048.38;;;9.27;50.07
15263;BME280;7733;51.554;13.590;2023-04-06T08:36:31;101056.25;;;9.58;50.31
15263;BME280;7733;51.554;13.590;2023-04-06T08:38:57;101051.91;;;9.66;49.00
15263;BME280;7733;51.554;13.590;2023-04-06T08:41:23;101056.28;;;9.88;48.17
15263;BME280;7733;51.554;13.590;2023-04-06T08:44:01;101056.28;;;9.90;45.82
15263;BME280;7733;51.554;13.590;2023-04-06T08:46:29;101050.16;;;10.23;46.12
15263;BME280;7733;51.554;13.590;2023-04-06T08:49:01;101045.75;;;9.97;46.00
15263;BME280;7733;51.554;13.590;2023-04-06T08:51:28;101044.88;;;10.14;47.37
15263;BME280;7733;51.554;13.590;2023-04-06T08:53:57;101052.72;;;10.44;45.81
15263;BME280;7733;51.554;13.590;2023-04-06T08:56:25;101045.69;;;10.55;45.08
15263;BME280;7733;51.554;13.590;2023-04-06T08:58:53;101042.13;;;10.70;44.25
15263;BME280;7733;51.554;13.590;2023-04-06T09:01:27;101046.50;;;10.73;43.38
15263;BME280;7733;51.554;13.590;2023-04-06T09:03:58;101043.78;;;10.91;43.17
15263;BME280;7733;51.554;13.590;2023-04-06T09:06:26;101049.88;;;11.02;44.37
15263;BME280;7733;51.554;13.590;2023-04-06T09:08:56;101042.75;;;11.25;44.13
15263;BME280;7733;51.554;13.590;2023-04-06T09:11:24;101041.50;;;11.72;42.82
15263;BME280;7733;51.554;13.590;2023-04-06T09:13:56;101035.56;;;11.49;42.63
15263;BME280;7733;51.554;13.590;2023-04-06T09:16:24;101031.84;;;11.79;41.34
15263;BME280;7733;51.554;13.590;2023-04-06T09:18:51;101030.88;;;11.91;41.98
15263;BME280;7733;51.554;13.590;2023-04-06T09:21:18;101026.34;;;12.08;40.95
15263;BME280;7733;51.554;13.590;2023-04-06T09:23:44;101027.22;;;12.08;41.30
15263;BME280;7733;51.554;13.590;2023-04-06T09:26:16;101023.53;;;12.25;41.90
15263;BME280;7733;51.554;13.590;2023-04-06T09:28:56;101033.69;;;12.57;40.35
15263;BME280;7733;51.554;13.590;2023-04-06T09:31:25;101019.78;;;12.45;39.42
15263;BME280;7733;51.554;13.590;2023-04-06T09:33:52;101013.19;;;12.83;39.87
15263;BME280;7733;51.554;13.590;2023-04-06T09:36:19;101024.16;;;12.46;39.17
15263;BME280;7733;51.554;13.590;2023-04-06T09:39:02;101015.84;;;12.82;38.31
15263;BME280;7733;51.554;13.590;2023-04-06T09:41:31;101019.16;;;12.94;39.14
15263;BME280;7733;51.554;13.590;2023-04-06T09:44:04;101010.75;;;11.86;40.76
15263;BME280;7733;51.554;13.590;2023-04-06T09:46:41;101012.06;;;11.31;39.31
15263;BME280;7733;51.554;13.590;2023-04-06T09:49:09;101009.78;;;10.70;39.98
15263;BME280;7733;51.554;13.590;2023-04-06T09:54:09;101002.38;;;11.36;38.93
15263;BME280;7733;51.554;13.590;2023-04-06T09:57:13;101002.66;;;12.08;38.58
15263;BME280;7733;51.554;13.590;2023-04-06T10:05:42;100995.22;;;13.13;37.21
15263;BME280;7733;51.554;13.590;2023-04-06T10:08:13;100995.16;;;13.19;36.97
15263;BME280;7733;51.554;13.590;2023-04-06T10:10:39;101002.69;;;12.80;35.92
15263;BME280;7733;51.554;13.590;2023-04-06T10:13:07;101003.59;;;12.77;35.75
15263;BME280;7733;51.554;13.590;2023-04-06T10:15:33;100999.97;;;12.88;34.49
15263;BME280;7733;51.554;13.590;2023-04-06T10:18:00;100990.50;;;12.73;35.28
15263;BME280;7733;51.554;13.590;2023-04-06T10:23:11;100995.38;;;13.00;34.93
15263;BME280;7733;51.554;13.590;2023-04-06T10:25:56;100996.91;;;12.52;35.32
15263;BME280;7733;51.554;13.590;2023-04-06T10:28:23;100990.38;;;12.82;35.82
15263;BME280;7733;51.554;13.590;2023-04-06T10:31:01;100986.88;;;12.83;35.57
15263;BME280;7733;51.554;13.590;2023-04-06T10:33:27;100983.44;;;13.36;35.78
15263;BME280;7733;51.554;13.590;2023-04-06T10:35:53;100978.66;;;13.61;35.14
15263;BME280;7733;51.554;13.590;2023-04-06T10:38:21;100978.09;;;13.44;33.79
15263;BME280;7733;51.554;13.590;2023-04-06T10:40:48;100980.44;;;13.01;33.13
15263;BME280;7733;51.554;13.590;2023-04-06T10:43:23;100982.00;;;13.71;34.04
15263;BME280;7733;51.554;13.590;2023-04-06T10:45:57;100970.00;;;14.04;33.74
15263;BME280;7733;51.554;13.590;2023-04-06T10:48:25;100962.69;;;14.17;32.42
15263;BME280;7733;51.554;13.590;2023-04-06T10:51:01;100967.44;;;13.98;32.39
15263;BME280;7733;51.554;13.590;2023-04-06T10:53:28;100967.66;;;14.34;32.31
15263;BME280;7733;51.554;13.590;2023-04-06T10:55:57;100967.00;;;14.21;31.56
15263;BME280;7733;51.554;13.590;2023-04-06T10:58:27;100962.38;;;14.34;31.80
15263;BME280;7733;51.554;13.590;2023-04-06T11:00:54;100962.16;;;14.46;31.37
15263;BME280;7733;51.554;13.590;2023-04-06T11:03:23;100956.88;;;14.86;30.84
15263;BME280;7733;51.554;13.590;2023-04-06T11:05:50;100955.94;;;14.48;31.17
15263;BME280;7733;51.554;13.590;2023-04-06T11:08:29;100952.50;;;14.85;30.78
15263;BME280;7733;51.554;13.590;2023-04-06T11:11:13;100949.91;;;14.83;30.31
15263;BME280;7733;51.554;13.590;2023-04-06T11:13:59;100952.63;;;14.36;29.27
15263;BME280;7733;51.554;13.590;2023-04-06T11:16:32;100958.28;;;14.17;30.68
15263;BME280;7733;51.554;13.590;2023-04-06T11:19:04;100947.75;;;14.60;31.09
15263;BME280;7733;51.554;13.590;2023-04-06T11:21:35;100949.16;;;14.77;30.64
15263;BME280;7733;51.554;13.590;2023-04-06T11:24:22;100951.69;;;14.83;30.49
15263;BME280;7733;51.554;13.590;2023-04-06T11:26:58;100946.84;;;15.02;30.54
15263;BME280;7733;51.554;13.590;2023-04-06T11:29:28;100945.13;;;14.59;30.62
15263;BME280;7733;51.554;13.590;2023-04-06T11:32:01;100956.41;;;13.78;30.43
15263;BME280;7733;51.554;13.590;2023-04-06T11:34:32;100946.25;;;14.04;31.27
15263;BME280;7733;51.554;13.590;2023-04-06T11:37:04;100951.09;;;14.25;31.66
15263;BME280;7733;51.554;13.590;2023-04-06T11:39:40;100942.44;;;14.17;31.55
15263;BME280;7733;51.554;13.590;2023-04-06T11:42:06;100939.69;;;14.25;30.71
15263;BME280;7733;51.554;13.590;2023-04-06T11:44:34;100941.94;;;14.45;30.26
15263;BME280;7733;51.554;13.590;2023-04-06T11:47:05;100927.31;;;14.70;30.16
15263;BME280;7733;51.554;13.590;2023-04-06T11:49:32;100931.19;;;14.54;31.16
15263;BME280;7733;51.554;13.590;2023-04-06T11:52:00;100937.06;;;13.77;30.81
15263;BME280;7733;51.554;13.590;2023-04-06T11:54:37;100925.41;;;14.75;30.55
15263;BME280;7733;51.554;13.590;2023-04-06T11:57:08;100927.50;;;14.18;30.51
15263;BME280;7733;51.554;13.590;2023-04-06T11:59:34;100938.94;;;13.17;32.19
15263;BME280;7733;51.554;13.590;2023-04-06T12:02:04;100928.97;;;13.88;32.37
15263;BME280;7733;51.554;13.590;2023-04-06T12:04:31;100926.75;;;14.11;31.75
15263;BME280;7733;51.554;13.590;2023-04-06T12:06:58;100928.19;;;14.27;31.67
15263;BME280;7733;51.554;13.590;2023-04-06T12:09:24;100927.34;;;13.79;31.11
15263;BME280;7733;51.554;13.590;2023-04-06T12:11:50;100920.91;;;14.39;30.56
15263;BME280;7733;51.554;13.590;2023-04-06T12:14:16;100909.22;;;14.90;30.31
15263;BME280;7733;51.554;13.590;2023-04-06T12:16:42;100906.19;;;14.70;30.40
15263;BME280;7733;51.554;13.590;2023-04-06T12:19:08;100908.50;;;15.55;31.18
15263;BME280;7733;51.554;13.590;2023-04-06T12:21:35;100908.38;;;15.26;30.12
15263;BME280;7733;51.554;13.590;2023-04-06T12:24:03;100903.94;;;15.28;30.08
15263;BME280;7733;51.554;13.590;2023-04-06T12:26:30;100904.56;;;15.37;30.59
15263;BME280;7733;51.554;13.590;2023-04-06T12:28:58;100899.13;;;15.77;30.57
15263;BME280;7733;51.554;13.590;2023-04-06T12:31:30;100899.81;;;14.79;29.77
15263;BME280;7733;51.554;13.590;2023-04-06T12:33:56;100899.88;;;14.76;29.44
15263;BME280;7733;51.554;13.590;2023-04-06T12:36:21;100896.09;;;15.91;29.54
15263;BME280;7733;51.554;13.590;2023-04-06T12:38:48;100896.69;;;15.70;29.07
15263;BME280;7733;51.554;13.590;2023-04-06T12:41:15;100896.31;;;15.49;28.10
15263;BME280;7733;51.554;13.590;2023-04-06T12:43:42;100898.38;;;14.66;30.09
15263;BME280;7733;51.554;13.590;2023-04-06T12:46:09;100891.81;;;14.83;28.95
15263;BME280;7733;51.554;13.590;2023-04-06T12:48:34;100891.84;;;15.86;28.80
15263;BME280;7733;51.554;13.590;2023-04-06T12:51:05;100892.69;;;15.88;28.46
15263;BME280;7733;51.554;13.590;2023-04-06T12:53:32;100880.00;;;15.68;29.17
15263;BME280;7733;51.554;13.590;2023-04-06T12:55:59;100882.28;;;15.47;29.73
15263;BME280;7733;51.554;13.590;2023-04-06T12:58:26;100878.50;;;15.56;28.81
15263;BME280;7733;51.554;13.590;2023-04-06T13:00:52;100873.44;;;15.81;28.30
15263;BME280;7733;51.554;13.590;2023-04-06T13:03:19;100872.44;;;14.43;29.82
15263;BME280;7733;51.554;13.590;2023-04-06T13:05:52;100868.91;;;14.45;29.81
15263;BME280;7733;51.554;13.590;2023-04-06T13:08:19;100880.53;;;14.75;29.98
15263;BME280;7733;51.554;13.590;2023-04-06T13:10:51;100863.88;;;15.09;29.15